createdAt,value
2022-12-11T00:05:21.142Z,-5.20
2022-12-11T00:12:42.516Z,-4.90
2022-12-11T00:15:10.089Z,-4.90
2022-12-11T00:20:05.365Z,-5.00
2022-12-11T00:54:27.309Z,-5.00
2022-12-11T00:56:56.269Z,-4.90
2022-12-11T01:14:26.854Z,-5.00
2022-12-11T01:44:14.740Z,-5.00
2022-12-11T01:46:42.169Z,-4.90
2022-12-11T01:49:13.868Z,-5.00
2022-12-11T01:51:52.292Z,-5.10
2022-12-11T01:54:21.362Z,-5.00
2022-12-11T01:56:50.441Z,-5.00
2022-12-11T01:59:22.131Z,-5.10
2022-12-11T02:01:59.523Z,-4.90
2022-12-11T02:04:26.538Z,-5.00
2022-12-11T02:06:54.279Z,-4.90
2022-12-11T02:09:32.209Z,-5.00
2022-12-11T02:12:03.763Z,-5.00
2022-12-11T02:14:45.281Z,-5.00
2022-12-11T02:17:17.838Z,-5.00
2022-12-11T02:20:05.973Z,-5.00
2022-12-11T02:25:21.814Z,-5.10
2022-12-11T02:27:56.747Z,-5.00
2022-12-11T02:30:24.965Z,-5.00
2022-12-11T02:32:51.794Z,-4.80
2022-12-11T02:37:48.571Z,-5.20
2022-12-11T02:40:20.639Z,-5.10
2022-12-11T02:42:49.681Z,-5.10
2022-12-11T02:45:18.386Z,-5.20
2022-12-11T02:47:47.355Z,-3.70
2022-12-11T02:50:18.151Z,-5.50
2022-12-11T02:52:47.188Z,-5.10
2022-12-11T02:55:16.591Z,-5.30
2022-12-11T02:57:55.386Z,-5.00
2022-12-11T03:05:17.275Z,-5.10
2022-12-11T03:07:45.316Z,-3.70
2022-12-11T03:10:15.819Z,-5.20
2022-12-11T03:12:51.817Z,-4.20
2022-12-11T03:15:24.078Z,-4.50
2022-12-11T03:18:01.264Z,-5.10
2022-12-11T03:20:43.067Z,-5.10
2022-12-11T03:23:32.381Z,-5.00
2022-12-11T03:26:08.633Z,-5.20
2022-12-11T03:31:08.765Z,-5.10
2022-12-11T03:33:42.259Z,-5.20
2022-12-11T03:36:14.103Z,-4.90
2022-12-11T03:38:49.342Z,-5.20
2022-12-11T03:41:20.160Z,-5.10
2022-12-11T03:43:49.210Z,-5.10
2022-12-11T03:46:18.832Z,-5.20
2022-12-11T03:48:47.725Z,-5.10
2022-12-11T03:51:16.895Z,-5.10
2022-12-11T03:56:14.000Z,-5.20
2022-12-11T04:01:11.767Z,-5.20
2022-12-11T04:06:06.521Z,-5.10
2022-12-11T04:11:21.415Z,-5.10
2022-12-11T04:19:21.471Z,-5.10
2022-12-11T04:41:45.458Z,-5.30
2022-12-11T04:44:12.368Z,-5.20
2022-12-11T05:01:23.653Z,-5.40
2022-12-11T05:06:18.335Z,-5.60
2022-12-11T05:11:15.105Z,-5.30
2022-12-11T05:13:43.188Z,-5.40
2022-12-11T05:16:12.691Z,-5.40
2022-12-11T05:18:39.791Z,-5.30
2022-12-11T05:21:09.781Z,-5.30
2022-12-11T05:26:11.605Z,-5.10
2022-12-11T05:28:39.888Z,-5.40
2022-12-11T05:31:17.249Z,-5.30
2022-12-11T05:33:45.208Z,-5.30
2022-12-11T05:36:38.520Z,-5.30
2022-12-11T05:41:33.201Z,-5.40
2022-12-11T05:46:29.518Z,-5.30
2022-12-11T05:48:59.529Z,-5.40
2022-12-11T05:51:27.605Z,-5.40
2022-12-11T05:53:56.422Z,-5.30
2022-12-11T05:56:29.451Z,-5.40
2022-12-11T05:58:57.231Z,-5.40
2022-12-11T06:01:29.153Z,-5.30
2022-12-11T06:03:56.810Z,-5.40
2022-12-11T06:08:52.813Z,-5.30
2022-12-11T06:11:23.944Z,-5.30
2022-12-11T06:21:20.591Z,-5.40
2022-12-11T06:23:49.713Z,-5.40
2022-12-11T06:26:17.671Z,-5.30
2022-12-11T06:28:45.069Z,-5.10
2022-12-11T06:31:12.986Z,-5.40
2022-12-11T06:36:10.568Z,-5.30
2022-12-11T06:38:38.021Z,-5.30
2022-12-11T06:41:06.294Z,-5.60
2022-12-11T06:43:37.119Z,-5.40
2022-12-11T06:46:10.771Z,-5.00
2022-12-11T06:51:07.043Z,-5.40
2022-12-11T06:56:10.194Z,-5.20
2022-12-11T06:58:38.498Z,-5.30
2022-12-11T07:01:18.496Z,-5.20
2022-12-11T07:11:09.902Z,-5.20
2022-12-11T07:16:10.560Z,-5.30
2022-12-11T07:18:42.092Z,-5.30
2022-12-11T07:21:11.956Z,-5.30
2022-12-11T07:23:39.511Z,-5.40
2022-12-11T07:26:09.893Z,-5.40
2022-12-11T07:31:08.968Z,-5.30
2022-12-11T07:36:05.611Z,-5.40
2022-12-11T07:41:08.254Z,-5.60
2022-12-11T07:43:35.643Z,-4.60
2022-12-11T07:46:07.595Z,-5.40
2022-12-11T07:48:38.875Z,-5.40
2022-12-11T07:51:33.518Z,-5.20
2022-12-11T07:54:07.077Z,-5.50
2022-12-11T07:59:03.594Z,-5.20
2022-12-11T08:01:33.495Z,-5.60
2022-12-11T08:06:30.531Z,-5.70
2022-12-11T08:08:58.907Z,-5.60
2022-12-11T08:11:26.600Z,-5.40
2022-12-11T08:18:48.813Z,-5.60
2022-12-11T08:21:21.515Z,-5.70
2022-12-11T08:23:49.138Z,-5.50
2022-12-11T08:26:22.444Z,-5.70
2022-12-11T08:33:45.170Z,-5.80
2022-12-11T08:36:14.174Z,-5.60
2022-12-11T08:48:32.031Z,-5.30
2022-12-11T08:51:04.554Z,-5.30
2022-12-11T08:53:32.276Z,-5.30
2022-12-11T08:56:13.510Z,-5.30
2022-12-11T09:01:10.541Z,-5.20
2022-12-11T09:03:38.744Z,-5.20
2022-12-11T09:06:14.696Z,-5.20
2022-12-11T09:08:51.679Z,-5.00
2022-12-11T09:11:21.994Z,-5.10
2022-12-11T09:13:49.359Z,-5.00
2022-12-11T09:16:18.641Z,-5.00
2022-12-11T09:18:47.378Z,-5.10
2022-12-11T09:21:15.206Z,-4.80
2022-12-11T09:26:11.978Z,-5.00
2022-12-11T09:31:18.866Z,-5.00
2022-12-11T09:41:23.326Z,-4.90
2022-12-11T09:43:59.128Z,-5.10
2022-12-11T09:46:33.565Z,-4.90
2022-12-11T09:49:04.820Z,-5.00
2022-12-11T09:51:42.948Z,-5.00
2022-12-11T09:54:13.618Z,-5.00
2022-12-11T09:57:07.556Z,-4.90
2022-12-11T09:59:40.538Z,-5.00
2022-12-11T10:02:22.629Z,-4.90
2022-12-11T10:05:01.838Z,-5.00
2022-12-11T10:07:53.215Z,-5.30
2022-12-11T10:10:42.844Z,-4.80
2022-12-11T10:13:34.073Z,-4.90
2022-12-11T10:16:39.711Z,-4.80
2022-12-11T10:19:14.650Z,-4.90
2022-12-11T10:21:42.922Z,-4.80
2022-12-11T10:25:10.094Z,-4.80
2022-12-11T10:27:33.034Z,-4.80
2022-12-11T10:30:16.159Z,-5.10
2022-12-11T10:35:27.171Z,-5.00
2022-12-11T10:38:16.000Z,-4.70
2022-12-11T10:40:50.522Z,-4.60
2022-12-11T10:45:52.668Z,-4.40
2022-12-11T10:48:19.624Z,-4.50
2022-12-11T10:51:03.061Z,-3.90
2022-12-11T10:53:31.639Z,-4.60
2022-12-11T10:55:58.997Z,-4.40
2022-12-11T10:58:29.223Z,-4.30
2022-12-11T11:01:21.636Z,-4.60
2022-12-11T11:03:59.127Z,-4.70
2022-12-11T11:06:26.611Z,-4.30
2022-12-11T11:08:56.364Z,-4.60
2022-12-11T11:11:28.586Z,-4.40
2022-12-11T11:14:25.009Z,-4.50
2022-12-11T11:16:55.637Z,-4.50
2022-12-11T11:19:30.927Z,-4.50
2022-12-11T11:22:19.602Z,-4.40
2022-12-11T11:24:57.111Z,-4.20
2022-12-11T11:27:35.773Z,-4.60
2022-12-11T11:30:05.670Z,-4.50
2022-12-11T11:32:38.687Z,-4.40
2022-12-11T11:35:22.718Z,-4.40
2022-12-11T11:38:02.949Z,-5.50
2022-12-11T11:40:42.716Z,-4.80
2022-12-11T11:43:53.428Z,-4.40
2022-12-11T11:46:25.890Z,-4.40
2022-12-11T11:49:04.448Z,-4.50
2022-12-11T11:51:36.180Z,-4.40
2022-12-11T11:54:20.873Z,-5.00
2022-12-11T11:56:51.774Z,-4.50
2022-12-11T11:59:47.250Z,-4.50
2022-12-11T12:02:17.851Z,-4.60
2022-12-11T12:04:46.398Z,-4.50
2022-12-11T12:07:41.082Z,-4.30
2022-12-11T12:11:12.644Z,-4.80
2022-12-11T12:13:50.152Z,-4.40
2022-12-11T12:16:52.574Z,-4.60
2022-12-11T12:19:35.268Z,-4.50
2022-12-11T12:22:30.869Z,-4.50
2022-12-11T12:25:24.401Z,-4.50
2022-12-11T12:27:59.675Z,-4.40
2022-12-11T12:30:32.353Z,-4.40
2022-12-11T12:33:17.887Z,-4.40
2022-12-11T12:36:06.852Z,-4.50
2022-12-11T12:39:08.646Z,-4.40
2022-12-11T12:42:07.222Z,-4.40
2022-12-11T12:44:58.325Z,-4.40
2022-12-11T12:47:28.826Z,-4.40
2022-12-11T12:49:58.817Z,-4.40
2022-12-11T12:52:39.425Z,-4.40
2022-12-11T12:55:24.683Z,-4.30
2022-12-11T12:58:08.365Z,-4.20
2022-12-11T13:03:13.054Z,-4.40
2022-12-11T13:05:43.298Z,-4.40
2022-12-11T13:08:11.707Z,-4.50
2022-12-11T13:10:41.831Z,-4.20
2022-12-11T13:13:38.060Z,-4.40
2022-12-11T13:16:17.281Z,-4.40
2022-12-11T13:18:47.674Z,-4.40
2022-12-11T13:21:38.336Z,-4.40
2022-12-11T13:24:24.026Z,-4.40
2022-12-11T13:30:06.258Z,-4.50
2022-12-11T13:32:34.206Z,-4.30
2022-12-11T13:35:06.604Z,-4.40
2022-12-11T13:37:41.439Z,-4.50
2022-12-11T13:40:33.263Z,-4.50
2022-12-11T13:43:03.916Z,-1.70
2022-12-11T13:45:45.282Z,-4.50
2022-12-11T13:48:21.453Z,-4.50
2022-12-11T13:50:49.602Z,-4.80
2022-12-11T13:53:18.132Z,-4.70
2022-12-11T13:55:46.219Z,-4.40
2022-12-11T13:58:21.858Z,-4.50
2022-12-11T14:01:08.249Z,-4.50
2022-12-11T14:03:35.917Z,-4.40
2022-12-11T14:06:04.241Z,-4.50
2022-12-11T14:08:35.998Z,-4.50
2022-12-11T14:13:40.378Z,-4.40
2022-12-11T14:18:36.866Z,-4.20
2022-12-11T14:21:06.598Z,-4.50
2022-12-11T14:23:35.755Z,-4.40
2022-12-11T14:26:17.997Z,-4.40
2022-12-11T14:31:21.636Z,-4.50
2022-12-11T14:33:55.822Z,-4.40
2022-12-11T14:36:23.762Z,-4.50
2022-12-11T14:39:00.898Z,-4.50
2022-12-11T14:41:43.041Z,-4.60
2022-12-11T14:44:15.677Z,-4.40
2022-12-11T14:46:58.445Z,-4.40
2022-12-11T14:49:47.058Z,-4.10
2022-12-11T14:52:16.888Z,-4.30
2022-12-11T14:54:47.866Z,-4.50
2022-12-11T14:57:26.858Z,-4.30
2022-12-11T14:59:55.286Z,-4.50
2022-12-11T15:02:33.827Z,-4.40
2022-12-11T15:05:07.795Z,-4.10
2022-12-11T15:07:34.797Z,-4.30
2022-12-11T15:15:03.409Z,-4.00
2022-12-11T15:17:30.940Z,-4.00
2022-12-11T15:20:07.812Z,-4.30
2022-12-11T15:22:36.170Z,-4.10
2022-12-11T15:27:38.890Z,-4.20
2022-12-11T15:30:20.085Z,-4.20
2022-12-11T15:32:46.981Z,-4.00
2022-12-11T15:35:26.262Z,-4.20
2022-12-11T15:37:55.122Z,-4.20
2022-12-11T15:42:50.819Z,-4.20
2022-12-11T15:45:26.125Z,-4.00
2022-12-11T15:47:53.437Z,-4.20
2022-12-11T15:50:25.816Z,-3.60
2022-12-11T15:52:53.940Z,-4.00
2022-12-11T15:55:22.592Z,-3.80
2022-12-11T16:00:19.084Z,-4.10
2022-12-11T16:02:46.995Z,-4.20
2022-12-11T16:07:42.035Z,-3.90
2022-12-11T16:10:14.531Z,-5.30
2022-12-11T16:15:11.437Z,-4.30
2022-12-11T16:17:39.005Z,-4.10
2022-12-11T16:20:07.173Z,-3.90
2022-12-11T16:29:56.191Z,-3.80
2022-12-11T16:34:50.423Z,-3.80
2022-12-11T16:44:44.033Z,-3.90
2022-12-11T16:52:05.889Z,-3.20
2022-12-11T16:59:29.050Z,-3.90
2022-12-11T17:06:55.887Z,-3.70
2022-12-11T17:09:22.802Z,-3.90
2022-12-11T17:19:11.719Z,-4.20
2022-12-11T17:24:07.230Z,-4.00
2022-12-11T17:36:24.618Z,-4.20
2022-12-11T17:38:51.502Z,-3.80
2022-12-11T17:41:21.081Z,-4.20
2022-12-11T17:43:49.932Z,-4.10
2022-12-11T17:46:16.961Z,-4.10
2022-12-11T17:48:45.229Z,-4.40
2022-12-11T17:51:14.415Z,-4.00
2022-12-11T17:56:27.438Z,-4.20
2022-12-11T18:03:49.573Z,-4.50
2022-12-11T18:06:23.192Z,-4.30
2022-12-11T18:11:19.050Z,-4.20
2022-12-11T18:13:46.523Z,-4.30
2022-12-11T18:16:17.480Z,-4.40
2022-12-11T18:21:16.332Z,-4.30
2022-12-11T18:23:46.086Z,-4.40
2022-12-11T18:28:41.837Z,-4.30
2022-12-11T18:31:09.871Z,-4.00
2022-12-11T18:33:38.828Z,-4.20
2022-12-11T18:36:06.609Z,-4.40
2022-12-11T18:38:34.029Z,-4.50
2022-12-11T18:41:05.589Z,-4.40
2022-12-11T18:50:54.435Z,-4.30
2022-12-11T18:53:21.434Z,-4.50
2022-12-11T18:55:49.260Z,-4.50
2022-12-11T18:58:20.626Z,-4.50
2022-12-11T19:08:13.939Z,-4.50
2022-12-11T19:10:47.057Z,-4.50
2022-12-11T19:15:42.907Z,-4.50
2022-12-11T19:18:11.470Z,-4.40
2022-12-11T19:20:49.277Z,-4.60
2022-12-11T19:23:17.056Z,-3.60
2022-12-11T19:25:46.507Z,-4.60
2022-12-11T19:30:46.701Z,-4.20
2022-12-11T19:40:45.032Z,-4.60
2022-12-11T19:43:12.042Z,-5.00
2022-12-11T19:45:39.174Z,-4.60
2022-12-11T19:50:36.458Z,-4.60
2022-12-11T19:53:03.884Z,-4.60
2022-12-11T20:17:44.725Z,-4.40
2022-12-11T20:40:17.082Z,-4.50
2022-12-11T20:45:15.724Z,-4.50
2022-12-11T20:52:38.582Z,-4.50
2022-12-11T20:55:06.126Z,-4.20
2022-12-11T21:00:00.567Z,-4.70
2022-12-11T21:02:30.889Z,-4.50
2022-12-11T21:04:58.639Z,-4.70
2022-12-11T21:27:04.403Z,-4.20
2022-12-11T21:31:59.393Z,-4.50
2022-12-11T21:36:57.013Z,-4.30
2022-12-11T21:39:26.251Z,-4.30
2022-12-11T21:41:53.185Z,-4.10
2022-12-11T22:04:19.544Z,-4.10
2022-12-11T22:06:47.437Z,-3.90
2022-12-11T22:09:16.438Z,-4.00
2022-12-11T22:14:14.135Z,-4.20
2022-12-11T22:24:04.738Z,-4.10
2022-12-11T22:26:31.782Z,-4.10
2022-12-11T22:28:59.060Z,-3.90
2022-12-11T22:31:27.462Z,-4.10
2022-12-11T22:33:55.214Z,-4.20
2022-12-11T22:36:26.765Z,-4.00
2022-12-11T22:41:28.509Z,-4.10
2022-12-11T22:43:56.206Z,-4.00
2022-12-11T22:46:27.441Z,-4.00
2022-12-11T22:51:22.096Z,-4.00
2022-12-11T22:56:16.939Z,-4.00
2022-12-11T23:01:22.854Z,-4.00
2022-12-11T23:03:49.702Z,-3.90
2022-12-11T23:06:19.330Z,-3.90
2022-12-11T23:11:36.380Z,-3.80
2022-12-11T23:14:05.097Z,-3.90
2022-12-11T23:16:32.622Z,-3.70
2022-12-11T23:21:28.718Z,-3.80
2022-12-11T23:23:55.694Z,-3.20
2022-12-11T23:26:23.248Z,-3.80
2022-12-11T23:36:13.522Z,-3.80
2022-12-11T23:38:40.946Z,-4.00
2022-12-11T23:41:09.655Z,-3.80
2022-12-11T23:43:36.690Z,-2.70
2022-12-11T23:46:07.330Z,-3.70
2022-12-11T23:53:29.457Z,-3.10
2022-12-11T23:55:56.580Z,-3.50
2022-12-11T23:58:23.526Z,-3.60
